Time;durP1;ratioP1;P1;durP2;ratioP2;P2;SDS_P1;SDS_P2;PMS_P1;PMS_P2;Temp;Humidity;BMP_temperature;BMP_pressure;BME280_temperature;BME280_humidity;BME280_pressure;Samples;Min_cycle;Max_cycle;Signal;HPM_P1;HPM_P2
2023/07/14 00:00:21;;;;;;;;;;;24.90;86.80;;;;;;5093387;28;19916;-46
2023/07/14 00:02:48;;;;;;;;;;;24.90;87.00;;;;;;5094268;28;19983;-42
2023/07/14 00:05:17;;;;;;;;;;;24.90;87.00;;;;;;5097457;28;19926;-41
2023/07/14 00:07:44;;;;;;;;;;;24.90;87.00;;;;;;5097342;28;19904;-43
2023/07/14 00:10:14;;;;;;;;;;;24.90;87.10;;;;;;5097407;28;19910;-43
2023/07/14 00:12:39;;;;;;;;;;;24.90;87.10;;;;;;5097305;28;19943;-41
2023/07/14 00:15:05;;;;;;;;;;;24.90;87.10;;;;;;5079231;28;19947;-41
2023/07/14 00:17:30;;;;;;;;;;;24.90;87.10;;;;;;5096918;28;19916;-42
2023/07/14 00:19:56;;;;;;;;;;;24.90;87.20;;;;;;5097184;28;19912;-41
2023/07/14 00:22:21;;;;;;;;;;;24.90;87.20;;;;;;5097221;28;19904;-42
2023/07/14 00:24:47;;;;;;;;;;;24.90;87.30;;;;;;5097172;28;19904;-41
2023/07/14 00:27:16;;;;;;;;;;;24.90;87.30;;;;;;5096771;28;19935;-44
2023/07/14 00:29:42;;;;;;;;;;;24.90;87.30;;;;;;5097040;28;19964;-45
2023/07/14 00:32:12;;;;;;;;;;;24.90;87.30;;;;;;5096783;28;20359;-42
2023/07/14 00:34:38;;;;;;;;;;;24.90;87.30;;;;;;5096814;28;20366;-42
2023/07/14 00:37:03;;;;;;;;;;;24.90;87.40;;;;;;5096770;28;19958;-41
2023/07/14 00:39:29;;;;;;;;;;;24.90;87.40;;;;;;5096816;28;20223;-42
2023/07/14 00:41:54;;;;;;;;;;;24.90;87.40;;;;;;5096525;28;19951;-41
2023/07/14 00:44:20;;;;;;;;;;;24.90;87.40;;;;;;5096286;28;19923;-42
2023/07/14 00:46:46;;;;;;;;;;;24.90;87.50;;;;;;5096706;28;19912;-46
2023/07/14 00:49:37;;;;;;;;;;;24.90;87.40;;;;;;5096602;28;19904;-44
2023/07/14 00:52:04;;;;;;;;;;;25.00;88.10;;;;;;5093544;28;19911;-45
2023/07/14 00:54:30;;;;;;;;;;;25.00;87.60;;;;;;5096486;28;19908;-44
2023/07/14 00:56:56;;;;;;;;;;;25.00;87.70;;;;;;5096556;28;20289;-42
2023/07/14 00:59:25;;;;;;;;;;;25.00;87.60;;;;;;5096247;28;19995;-41
2023/07/14 01:02:09;;;;;;;;;;;25.00;87.60;;;;;;5096481;28;19994;-44
2023/07/14 01:04:35;;;;;;;;;;;25.00;87.60;;;;;;5096099;28;19915;-42
2023/07/14 01:07:01;;;;;;;;;;;25.00;87.60;;;;;;5096311;28;19904;-42
2023/07/14 01:09:26;;;;;;;;;;;25.00;87.70;;;;;;5096262;28;20300;-42
2023/07/14 01:11:54;;;;;;;;;;;25.00;87.60;;;;;;5096034;28;20037;-43
2023/07/14 01:14:24;;;;;;;;;;;25.00;87.70;;;;;;5096256;28;19904;-41
2023/07/14 01:16:51;;;;;;;;;;;25.00;87.70;;;;;;5095495;28;19908;-41
2023/07/14 01:19:16;;;;;;;;;;;25.00;87.80;;;;;;5095741;28;19957;-43
2023/07/14 01:21:46;;;;;;;;;;;25.00;87.80;;;;;;5095762;28;19904;-42
2023/07/14 01:24:15;;;;;;;;;;;25.00;87.80;;;;;;5096088;28;20001;-42
2023/07/14 01:26:52;;;;;;;;;;;25.00;87.90;;;;;;5096029;28;19912;-43
2023/07/14 01:29:18;;;;;;;;;;;25.00;87.90;;;;;;5095938;28;19911;-41
2023/07/14 01:31:44;;;;;;;;;;;25.00;87.80;;;;;;5095918;28;19994;-41
2023/07/14 01:34:10;;;;;;;;;;;25.00;87.90;;;;;;5095852;28;19904;-44
2023/07/14 01:36:36;;;;;;;;;;;25.00;87.90;;;;;;5095662;28;19915;-43
2023/07/14 01:39:01;;;;;;;;;;;25.00;87.90;;;;;;5095722;28;19915;-41
2023/07/14 01:41:27;;;;;;;;;;;25.00;87.90;;;;;;5095385;28;20061;-42
2023/07/14 01:43:53;;;;;;;;;;;25.00;87.90;;;;;;5095669;28;19927;-41
2023/07/14 01:46:20;;;;;;;;;;;25.00;87.90;;;;;;5095731;28;19969;-43
2023/07/14 01:48:54;;;;;;;;;;;25.00;87.90;;;;;;5095825;28;20299;-44
2023/07/14 01:51:20;;;;;;;;;;;25.00;88.00;;;;;;5095255;28;19910;-43
2023/07/14 01:53:54;;;;;;;;;;;25.00;88.00;;;;;;5095429;28;19904;-42
2023/07/14 01:56:21;;;;;;;;;;;25.00;88.00;;;;;;5095044;28;20004;-42
2023/07/14 01:59:04;;;;;;;;;;;25.00;88.00;;;;;;5095317;28;19985;-42
2023/07/14 02:01:30;;;;;;;;;;;25.00;88.50;;;;;;5095409;28;19904;-41
2023/07/14 02:03:56;;;;;;;;;;;25.00;88.00;;;;;;5094999;28;19904;-42
2023/07/14 02:06:22;;;;;;;;;;;25.00;88.00;;;;;;5094982;28;19904;-41
2023/07/14 02:08:48;;;;;;;;;;;25.00;88.00;;;;;;5095124;28;19911;-44
2023/07/14 02:11:18;;;;;;;;;;;25.00;88.00;;;;;;5095384;28;19987;-44
2023/07/14 02:13:44;;;;;;;;;;;25.00;88.10;;;;;;5095062;28;19998;-41
2023/07/14 02:16:12;;;;;;;;;;;25.00;88.10;;;;;;5094812;28;19951;-44
2023/07/14 02:18:38;;;;;;;;;;;25.10;88.10;;;;;;5094870;28;19930;-44
2023/07/14 02:21:04;;;;;;;;;;;25.00;88.10;;;;;;5094974;28;20318;-45
2023/07/14 02:23:30;;;;;;;;;;;25.00;88.10;;;;;;5094944;28;19907;-42
2023/07/14 02:26:03;;;;;;;;;;;25.00;88.20;;;;;;5094660;28;19908;-43
2023/07/14 02:28:29;;;;;;;;;;;25.00;88.10;;;;;;5094304;28;19998;-44
2023/07/14 02:30:58;;;;;;;;;;;25.00;88.20;;;;;;5094820;28;19954;-41
2023/07/14 02:33:26;;;;;;;;;;;25.00;88.20;;;;;;5094795;28;19911;-44
2023/07/14 02:35:58;;;;;;;;;;;25.00;88.20;;;;;;5094672;28;19904;-42
2023/07/14 02:38:24;;;;;;;;;;;25.00;88.30;;;;;;5094311;28;19957;-43
2023/07/14 02:40:49;;;;;;;;;;;25.00;88.30;;;;;;5094661;28;19908;-42
2023/07/14 02:43:16;;;;;;;;;;;25.00;88.40;;;;;;5094388;28;20346;-42
2023/07/14 02:45:51;;;;;;;;;;;25.00;88.40;;;;;;5094573;28;19916;-43
2023/07/14 02:48:19;;;;;;;;;;;25.00;88.30;;;;;;5094559;28;19904;-43
2023/07/14 02:50:44;;;;;;;;;;;25.00;88.30;;;;;;5094526;28;19904;-41
2023/07/14 02:53:10;;;;;;;;;;;25.10;88.50;;;;;;5094192;28;19911;-42
2023/07/14 02:55:36;;;;;;;;;;;25.10;88.50;;;;;;5094518;28;19911;-41
2023/07/14 02:58:03;;;;;;;;;;;25.10;88.50;;;;;;5094657;28;20250;-41
2023/07/14 03:00:28;;;;;;;;;;;25.10;88.50;;;;;;5094097;28;19908;-42
2023/07/14 03:02:54;;;;;;;;;;;25.00;88.50;;;;;;5094268;28;19931;-43
2023/07/14 03:05:19;;;;;;;;;;;25.10;88.60;;;;;;5094045;28;19905;-41
2023/07/14 03:07:45;;;;;;;;;;;25.00;88.50;;;;;;5094497;28;19958;-41
2023/07/14 03:10:10;;;;;;;;;;;25.00;88.50;;;;;;5093928;28;19905;-41
2023/07/14 03:12:36;;;;;;;;;;;25.00;88.50;;;;;;5094542;28;19904;-44
2023/07/14 03:15:01;;;;;;;;;;;25.00;88.50;;;;;;5094192;28;19959;-41
2023/07/14 03:17:27;;;;;;;;;;;25.00;88.50;;;;;;5094197;28;19939;-43
2023/07/14 03:19:52;;;;;;;;;;;25.10;88.60;;;;;;5093853;28;19908;-44
2023/07/14 03:22:18;;;;;;;;;;;25.00;88.50;;;;;;5094154;28;19998;-41
2023/07/14 03:24:43;;;;;;;;;;;25.00;88.50;;;;;;5093843;28;19905;-41
2023/07/14 03:27:09;;;;;;;;;;;25.00;88.60;;;;;;5093697;28;19991;-47
2023/07/14 03:29:34;;;;;;;;;;;25.00;88.60;;;;;;5093709;28;20045;-43
2023/07/14 03:32:00;;;;;;;;;;;25.00;88.60;;;;;;5075874;28;20290;-43
2023/07/14 03:34:25;;;;;;;;;;;25.10;88.70;;;;;;5093555;28;19987;-45
2023/07/14 03:36:51;;;;;;;;;;;25.00;88.60;;;;;;5093805;28;20335;-43
2023/07/14 03:39:24;;;;;;;;;;;25.00;88.70;;;;;;5096757;28;20253;-44
2023/07/14 03:41:50;;;;;;;;;;;25.00;88.70;;;;;;5098100;28;19904;-42
2023/07/14 03:44:16;;;;;;;;;;;25.00;88.60;;;;;;5097716;28;20406;-42
2023/07/14 03:46:41;;;;;;;;;;;25.00;88.70;;;;;;5097654;28;19951;-44
2023/07/14 03:49:07;;;;;;;;;;;25.00;88.60;;;;;;5097501;28;19910;-42
2023/07/14 03:51:32;;;;;;;;;;;25.00;88.70;;;;;;5097914;28;19965;-42
2023/07/14 03:53:58;;;;;;;;;;;25.00;88.60;;;;;;5097739;28;19951;-42
2023/07/14 03:56:25;;;;;;;;;;;25.00;84.60;;;;;;5097698;28;19904;-41
2023/07/14 03:58:51;;;;;;;;;;;25.00;87.00;;;;;;5097744;28;19908;-43
2023/07/14 04:01:16;;;;;;;;;;;25.00;87.70;;;;;;5097590;28;20342;-43
2023/07/14 04:03:42;;;;;;;;;;;25.00;88.00;;;;;;5097543;28;19904;-41
2023/07/14 04:06:07;;;;;;;;;;;25.00;88.20;;;;;;5097280;28;19911;-42
2023/07/14 04:08:39;;;;;;;;;;;25.00;88.30;;;;;;5079175;28;19912;-42
2023/07/14 04:11:05;;;;;;;;;;;25.00;88.40;;;;;;5097086;28;20016;-40
2023/07/14 04:13:31;;;;;;;;;;;24.90;88.50;;;;;;5097232;28;20343;-43
2023/07/14 04:15:57;;;;;;;;;;;24.90;88.50;;;;;;5097142;28;20251;-44
2023/07/14 04:18:23;;;;;;;;;;;24.90;88.70;;;;;;5096784;28;19963;-41
2023/07/14 04:20:49;;;;;;;;;;;24.90;88.70;;;;;;5096940;28;20422;-42
2023/07/14 04:23:15;;;;;;;;;;;24.90;88.70;;;;;;5096819;28;19911;-41
2023/07/14 04:25:40;;;;;;;;;;;24.90;88.70;;;;;;5097102;28;20247;-42
2023/07/14 04:28:06;;;;;;;;;;;24.90;88.80;;;;;;5097412;28;19904;-42
2023/07/14 04:30:31;;;;;;;;;;;24.90;88.80;;;;;;5096914;28;20238;-43
2023/07/14 04:32:57;;;;;;;;;;;24.90;88.90;;;;;;5096807;28;19904;-43
2023/07/14 04:35:23;;;;;;;;;;;24.90;88.90;;;;;;5096433;28;19905;-44
2023/07/14 04:37:49;;;;;;;;;;;24.90;89.00;;;;;;5096732;28;19908;-44
2023/07/14 04:40:14;;;;;;;;;;;24.90;89.00;;;;;;5097038;28;19912;-44
2023/07/14 04:42:40;;;;;;;;;;;24.90;89.00;;;;;;5096745;28;20247;-43
2023/07/14 04:45:06;;;;;;;;;;;24.90;89.10;;;;;;5096430;28;19916;-44
2023/07/14 04:47:31;;;;;;;;;;;24.90;89.00;;;;;;5096180;28;19911;-43
2023/07/14 04:49:58;;;;;;;;;;;24.80;88.90;;;;;;5094796;28;20322;-43
2023/07/14 04:52:24;;;;;;;;;;;24.80;89.00;;;;;;5096153;28;19943;-42
2023/07/14 04:54:49;;;;;;;;;;;24.80;88.90;;;;;;5096275;28;20301;-44
2023/07/14 04:57:15;;;;;;;;;;;24.90;88.90;;;;;;5095889;28;19912;-42
2023/07/14 04:59:42;;;;;;;;;;;24.80;88.90;;;;;;5077977;28;19908;-45
2023/07/14 05:02:08;;;;;;;;;;;24.80;88.90;;;;;;5096149;28;19998;-44
2023/07/14 05:04:38;;;;;;;;;;;24.80;88.90;;;;;;5096255;28;20051;-43
2023/07/14 05:07:04;;;;;;;;;;;24.90;88.90;;;;;;5096371;28;19911;-42
2023/07/14 05:09:29;;;;;;;;;;;24.80;88.90;;;;;;5095749;28;19904;-42
2023/07/14 05:11:55;;;;;;;;;;;24.80;89.00;;;;;;5096129;28;19908;-42
2023/07/14 05:14:20;;;;;;;;;;;24.80;88.90;;;;;;5095999;28;19913;-45
2023/07/14 05:16:45;;;;;;;;;;;24.80;89.50;;;;;;5095855;28;20346;-42
2023/07/14 05:19:11;;;;;;;;;;;24.80;89.00;;;;;;5095901;28;20262;-43
2023/07/14 05:21:36;;;;;;;;;;;24.80;89.00;;;;;;5095788;28;19908;-44
2023/07/14 05:24:02;;;;;;;;;;;24.80;88.90;;;;;;5095783;28;19911;-43
2023/07/14 05:26:28;;;;;;;;;;;24.80;89.00;;;;;;5095449;28;19954;-42
2023/07/14 05:28:53;;;;;;;;;;;24.80;88.90;;;;;;5095348;28;19947;-41
2023/07/14 05:31:19;;;;;;;;;;;24.80;88.90;;;;;;5095506;28;19905;-42
2023/07/14 05:33:45;;;;;;;;;;;24.80;88.90;;;;;;5095067;28;20287;-42
2023/07/14 05:36:10;;;;;;;;;;;24.80;89.00;;;;;;5094880;28;19910;-42
2023/07/14 05:38:36;;;;;;;;;;;24.80;88.90;;;;;;5095316;28;19952;-43
2023/07/14 05:41:04;;;;;;;;;;;24.80;89.00;;;;;;5095185;28;20259;-42
2023/07/14 05:43:30;;;;;;;;;;;24.80;89.00;;;;;;5077032;28;20403;-43
2023/07/14 05:45:55;;;;;;;;;;;24.80;89.00;;;;;;5094839;28;19924;-41
2023/07/14 05:48:21;;;;;;;;;;;24.80;88.90;;;;;;5094857;28;20003;-44
2023/07/14 05:50:47;;;;;;;;;;;24.80;88.90;;;;;;5094881;28;19904;-43
2023/07/14 05:53:14;;;;;;;;;;;24.90;89.00;;;;;;5094594;28;19911;-41
2023/07/14 05:55:39;;;;;;;;;;;24.80;88.90;;;;;;5094735;28;20354;-45
2023/07/14 05:58:06;;;;;;;;;;;24.80;88.90;;;;;;5094478;28;19919;-43
2023/07/14 06:00:38;;;;;;;;;;;24.80;88.90;;;;;;5096828;28;19914;-43
2023/07/14 06:03:04;;;;;;;;;;;24.80;89.00;;;;;;5095430;28;19920;-42
2023/07/14 06:05:30;;;;;;;;;;;24.80;89.00;;;;;;5096842;28;19908;-41
2023/07/14 06:07:56;;;;;;;;;;;24.80;89.00;;;;;;5102329;28;19904;-42
2023/07/14 06:10:21;;;;;;;;;;;24.80;89.00;;;;;;5115038;28;20369;-43
2023/07/14 06:12:47;;;;;;;;;;;24.80;89.00;;;;;;5107551;28;19905;-42
2023/07/14 06:15:12;;;;;;;;;;;24.80;89.00;;;;;;5094204;28;20255;-43
2023/07/14 06:17:38;;;;;;;;;;;24.80;89.10;;;;;;5094370;28;19912;-42
2023/07/14 06:20:04;;;;;;;;;;;24.80;89.20;;;;;;5094601;28;19908;-42
2023/07/14 06:22:29;;;;;;;;;;;24.80;89.20;;;;;;5094216;28;19919;-44
2023/07/14 06:24:55;;;;;;;;;;;24.80;89.20;;;;;;5094323;28;19911;-41
2023/07/14 06:27:23;;;;;;;;;;;24.80;89.30;;;;;;5094315;28;19912;-43
2023/07/14 06:29:48;;;;;;;;;;;24.80;89.40;;;;;;5077418;28;20016;-43
2023/07/14 06:32:15;;;;;;;;;;;24.80;89.50;;;;;;5094240;28;20378;-44
2023/07/14 06:34:42;;;;;;;;;;;24.80;89.50;;;;;;5095738;28;20247;-44
2023/07/14 06:37:08;;;;;;;;;;;24.80;89.50;;;;;;5104532;28;19912;-42
2023/07/14 06:39:33;;;;;;;;;;;24.80;89.60;;;;;;5098929;28;19942;-41
2023/07/14 06:41:59;;;;;;;;;;;24.80;89.60;;;;;;5094248;28;19933;-43
2023/07/14 06:44:24;;;;;;;;;;;24.80;89.70;;;;;;5094133;28;19961;-43
2023/07/14 06:46:50;;;;;;;;;;;24.80;89.80;;;;;;5101931;28;19947;-41
2023/07/14 06:49:15;;;;;;;;;;;24.80;89.80;;;;;;5114718;28;19904;-42
2023/07/14 06:51:40;;;;;;;;;;;24.80;89.90;;;;;;5114674;28;20274;-41
2023/07/14 06:54:06;;;;;;;;;;;24.80;89.90;;;;;;5106238;28;19920;-49
2023/07/14 06:56:31;;;;;;;;;;;24.80;90.00;;;;;;5099659;28;19908;-42
2023/07/14 06:58:57;;;;;;;;;;;24.80;90.00;;;;;;5111906;28;19915;-43
2023/07/14 07:01:22;;;;;;;;;;;24.80;90.00;;;;;;5111238;28;20325;-42
2023/07/14 07:03:48;;;;;;;;;;;24.80;90.00;;;;;;5097932;28;20337;-41
2023/07/14 07:06:17;;;;;;;;;;;24.80;90.00;;;;;;5107768;28;19915;-43
2023/07/14 07:08:43;;;;;;;;;;;24.80;90.00;;;;;;5098446;28;19930;-46
2023/07/14 07:11:12;;;;;;;;;;;24.80;90.10;;;;;;5091876;28;19913;-48
2023/07/14 07:13:37;;;;;;;;;;;24.80;90.00;;;;;;5095813;28;19946;-43
2023/07/14 07:16:03;;;;;;;;;;;24.80;90.00;;;;;;5093610;28;19908;-42
2023/07/14 07:18:28;;;;;;;;;;;24.80;90.00;;;;;;5093164;28;19927;-43
2023/07/14 07:20:54;;;;;;;;;;;24.80;89.90;;;;;;5094173;28;19919;-43
2023/07/14 07:23:20;;;;;;;;;;;24.80;89.70;;;;;;5107050;28;20298;-43
2023/07/14 07:25:46;;;;;;;;;;;24.80;89.70;;;;;;5093513;28;19904;-47
2023/07/14 07:28:12;;;;;;;;;;;24.80;89.80;;;;;;5092274;28;19904;-45
2023/07/14 07:30:37;;;;;;;;;;;24.80;89.90;;;;;;5093044;28;20394;-42
2023/07/14 07:33:03;;;;;;;;;;;24.80;90.00;;;;;;5094497;28;19988;-43
2023/07/14 07:35:28;;;;;;;;;;;24.80;90.00;;;;;;5093395;28;20010;-45
2023/07/14 07:37:53;;;;;;;;;;;24.80;90.10;;;;;;5095094;28;20006;-44
2023/07/14 07:40:19;;;;;;;;;;;24.80;90.00;;;;;;5099706;28;19912;-44
2023/07/14 07:42:45;;;;;;;;;;;24.80;90.00;;;;;;5098807;28;19912;-44
2023/07/14 07:45:11;;;;;;;;;;;24.80;90.10;;;;;;5103419;28;19916;-44
2023/07/14 07:47:36;;;;;;;;;;;24.80;90.00;;;;;;5094178;28;19908;-44
2023/07/14 07:50:03;;;;;;;;;;;24.80;90.00;;;;;;5097118;28;19908;-45
2023/07/14 07:52:29;;;;;;;;;;;24.80;89.60;;;;;;5113698;28;19976;-42
2023/07/14 07:54:55;;;;;;;;;;;24.80;89.30;;;;;;5113807;28;19908;-46
2023/07/14 07:57:20;;;;;;;;;;;24.80;89.40;;;;;;5113706;28;20064;-44
2023/07/14 07:59:46;;;;;;;;;;;24.80;89.40;;;;;;5113665;28;19912;-42
2023/07/14 08:02:12;;;;;;;;;;;24.80;89.20;;;;;;5113293;28;20378;-43
2023/07/14 08:04:38;;;;;;;;;;;24.80;89.20;;;;;;5113468;28;19915;-43
2023/07/14 08:07:08;;;;;;;;;;;24.80;89.20;;;;;;5113386;28;19953;-44
2023/07/14 08:09:34;;;;;;;;;;;24.80;89.10;;;;;;5113752;28;19914;-48
2023/07/14 08:11:59;;;;;;;;;;;24.80;89.00;;;;;;5113707;28;19998;-42
2023/07/14 08:14:25;;;;;;;;;;;24.80;88.90;;;;;;5113545;28;20429;-46
2023/07/14 08:16:50;;;;;;;;;;;24.80;88.80;;;;;;5113511;28;19914;-44
2023/07/14 08:19:16;;;;;;;;;;;24.80;88.90;;;;;;5104505;28;19920;-43
2023/07/14 08:21:41;;;;;;;;;;;24.80;88.90;;;;;;5099533;28;19922;-50
2023/07/14 08:24:07;;;;;;;;;;;24.80;88.90;;;;;;5079404;28;19916;-43
2023/07/14 08:26:34;;;;;;;;;;;24.80;88.80;;;;;;5097949;28;19930;-42
2023/07/14 08:28:59;;;;;;;;;;;24.80;88.90;;;;;;5115777;28;19957;-43
2023/07/14 08:31:25;;;;;;;;;;;24.80;88.80;;;;;;5117148;28;19912;-44
2023/07/14 08:33:51;;;;;;;;;;;24.80;88.70;;;;;;5098701;28;19907;-41
2023/07/14 08:36:17;;;;;;;;;;;24.80;88.90;;;;;;5110079;28;19923;-42
2023/07/14 08:38:42;;;;;;;;;;;24.80;88.80;;;;;;5110070;28;20332;-43
2023/07/14 08:41:26;;;;;;;;;;;24.80;89.10;;;;;;5109583;28;19915;-43
2023/07/14 08:43:59;;;;;;;;;;;24.80;88.90;;;;;;5113844;28;19912;-42
2023/07/14 08:46:43;;;;;;;;;;;24.80;89.00;;;;;;5116653;28;19919;-41
2023/07/14 08:49:20;;;;;;;;;;;24.80;89.00;;;;;;5116519;28;20014;-45
2023/07/14 08:51:53;;;;;;;;;;;24.80;88.80;;;;;;5116476;28;20320;-42
2023/07/14 08:54:20;;;;;;;;;;;24.80;89.00;;;;;;5098379;28;19908;-42
2023/07/14 08:56:46;;;;;;;;;;;24.80;89.10;;;;;;5116573;28;19933;-42
2023/07/14 08:59:22;;;;;;;;;;;24.80;88.60;;;;;;5116873;28;20006;-44
2023/07/14 09:01:56;;;;;;;;;;;24.80;88.70;;;;;;5116579;28;19915;-43
2023/07/14 09:04:25;;;;;;;;;;;24.80;88.80;;;;;;5116319;28;19907;-43
2023/07/14 09:06:51;;;;;;;;;;;24.70;88.40;;;;;;5116161;28;20373;-43
2023/07/14 09:09:18;;;;;;;;;;;24.80;88.50;;;;;;5116233;28;19912;-42
2023/07/14 09:11:46;;;;;;;;;;;24.80;88.90;;;;;;5116373;28;19908;-44
2023/07/14 09:14:37;;;;;;;;;;;24.80;88.90;;;;;;5116280;28;20022;-44
2023/07/14 09:17:03;;;;;;;;;;;24.80;88.90;;;;;;5111075;28;19973;-42
2023/07/14 09:19:35;;;;;;;;;;;24.80;88.90;;;;;;5116594;28;19912;-42
2023/07/14 09:22:03;;;;;;;;;;;24.80;89.10;;;;;;5116517;28;19908;-44
2023/07/14 09:24:35;;;;;;;;;;;24.70;89.30;;;;;;5097967;28;20028;-46
2023/07/14 09:27:03;;;;;;;;;;;24.80;89.50;;;;;;5115794;28;19907;-43
2023/07/14 09:29:40;;;;;;;;;;;24.80;89.20;;;;;;5115984;28;19908;-45
2023/07/14 09:32:10;;;;;;;;;;;24.80;89.00;;;;;;5115721;28;19912;-43
2023/07/14 09:34:38;;;;;;;;;;;24.80;89.00;;;;;;5115921;28;19908;-43
2023/07/14 09:37:20;;;;;;;;;;;24.80;89.00;;;;;;5100615;28;19920;-41
2023/07/14 09:39:46;;;;;;;;;;;24.80;88.80;;;;;;5094019;28;20014;-45
2023/07/14 09:42:18;;;;;;;;;;;24.80;88.70;;;;;;5100649;28;19916;-43
2023/07/14 09:44:44;;;;;;;;;;;24.70;88.60;;;;;;5095101;28;19939;-43
2023/07/14 09:47:09;;;;;;;;;;;24.80;89.00;;;;;;5095287;28;19912;-43
2023/07/14 09:49:42;;;;;;;;;;;24.80;89.10;;;;;;5094981;28;19934;-43
2023/07/14 09:52:09;;;;;;;;;;;24.80;88.90;;;;;;5095249;28;20010;-43
2023/07/14 09:54:40;;;;;;;;;;;24.70;88.50;;;;;;5094731;28;19912;-43
2023/07/14 09:57:09;;;;;;;;;;;24.70;88.50;;;;;;5094685;28;19912;-41
2023/07/14 09:59:35;;;;;;;;;;;24.80;89.20;;;;;;5097394;28;19916;-43
2023/07/14 10:02:01;;;;;;;;;;;24.80;89.40;;;;;;5096655;28;20009;-43
2023/07/14 10:04:28;;;;;;;;;;;24.70;89.30;;;;;;5093409;28;19979;-42
2023/07/14 10:06:54;;;;;;;;;;;24.70;89.20;;;;;;5093664;28;19934;-42
2023/07/14 10:09:22;;;;;;;;;;;24.70;89.00;;;;;;5103836;28;19912;-42
2023/07/14 10:11:49;;;;;;;;;;;24.70;88.60;;;;;;5097746;28;19912;-45
2023/07/14 10:14:35;;;;;;;;;;;24.70;88.70;;;;;;5095304;28;19916;-42
2023/07/14 10:17:00;;;;;;;;;;;24.70;88.90;;;;;;5110712;28;19922;-42
2023/07/14 10:19:34;;;;;;;;;;;24.70;88.60;;;;;;5111274;28;19916;-41
2023/07/14 10:22:04;;;;;;;;;;;24.70;88.90;;;;;;5098696;28;20371;-42
2023/07/14 10:24:31;;;;;;;;;;;24.70;89.10;;;;;;5109649;28;19912;-44
2023/07/14 10:27:03;;;;;;;;;;;24.70;89.30;;;;;;5098514;28;19943;-43
2023/07/14 10:29:44;;;;;;;;;;;24.70;89.40;;;;;;5093341;28;20366;-46
2023/07/14 10:32:14;;;;;;;;;;;24.70;89.40;;;;;;5075054;28;20363;-46
2023/07/14 10:34:39;;;;;;;;;;;24.80;89.10;;;;;;5093982;28;20010;-45
2023/07/14 10:37:12;;;;;;;;;;;24.80;89.10;;;;;;5094186;28;20051;-43
2023/07/14 10:39:42;;;;;;;;;;;24.70;89.10;;;;;;5093934;28;19912;-43
2023/07/14 10:42:10;;;;;;;;;;;24.70;89.40;;;;;;5094295;28;19940;-45
2023/07/14 10:44:38;;;;;;;;;;;24.70;89.50;;;;;;5094072;28;20019;-45
2023/07/14 10:47:29;;;;;;;;;;;24.70;89.50;;;;;;5093776;28;19915;-44
2023/07/14 10:50:03;;;;;;;;;;;24.70;89.60;;;;;;5090524;28;19912;-42
2023/07/14 10:52:41;;;;;;;;;;;24.70;89.70;;;;;;5094072;28;19916;-43
2023/07/14 10:55:24;;;;;;;;;;;24.70;89.50;;;;;;5093468;28;20379;-45
2023/07/14 10:58:03;;;;;;;;;;;24.80;89.50;;;;;;5093753;28;19938;-43
2023/07/14 11:00:30;;;;;;;;;;;24.70;89.60;;;;;;5093546;28;20390;-43
2023/07/14 11:03:18;;;;;;;;;;;24.70;89.70;;;;;;5093962;28;19916;-46
2023/07/14 11:05:48;;;;;;;;;;;24.70;89.70;;;;;;5093210;28;20442;-42
2023/07/14 11:08:13;;;;;;;;;;;24.70;89.70;;;;;;5091797;28;19919;-44
2023/07/14 11:10:47;;;;;;;;;;;24.70;89.40;;;;;;5080667;28;20274;-41
2023/07/14 11:13:31;;;;;;;;;;;24.80;89.90;;;;;;5099647;28;19912;-41
2023/07/14 11:16:00;;;;;;;;;;;24.70;90.00;;;;;;5113563;28;19925;-42
2023/07/14 11:18:44;;;;;;;;;;;24.80;90.10;;;;;;5109712;28;20335;-42
2023/07/14 11:21:09;;;;;;;;;;;24.80;90.10;;;;;;5110700;28;19919;-43
2023/07/14 11:23:38;;;;;;;;;;;24.80;90.00;;;;;;5093003;28;19920;-44
2023/07/14 11:26:09;;;;;;;;;;;24.70;90.00;;;;;;5108223;28;19943;-42
2023/07/14 11:28:34;;;;;;;;;;;24.70;90.10;;;;;;5113750;28;19953;-41
2023/07/14 11:31:01;;;;;;;;;;;24.70;88.40;;;;;;5114030;28;19995;-43
2023/07/14 11:33:27;;;;;;;;;;;24.70;88.30;;;;;;5109126;28;19912;-44
2023/07/14 11:35:55;;;;;;;;;;;24.70;88.60;;;;;;5096882;28;19919;-42
2023/07/14 11:38:23;;;;;;;;;;;24.70;89.30;;;;;;5111517;28;19912;-47
2023/07/14 11:40:49;;;;;;;;;;;24.70;89.90;;;;;;5093101;28;20003;-45
2023/07/14 11:43:20;;;;;;;;;;;24.80;90.20;;;;;;5097653;28;20427;-42
2023/07/14 11:45:47;;;;;;;;;;;24.80;90.20;;;;;;5098922;28;19924;-43
2023/07/14 11:48:21;;;;;;;;;;;24.80;90.30;;;;;;5078105;28;19912;-42
2023/07/14 11:51:01;;;;;;;;;;;24.70;90.30;;;;;;5110667;28;19912;-42
2023/07/14 11:53:26;;;;;;;;;;;24.80;90.40;;;;;;5107757;28;19915;-42
2023/07/14 11:55:52;;;;;;;;;;;24.80;90.40;;;;;;5094503;28;19922;-43
2023/07/14 11:58:20;;;;;;;;;;;24.80;90.50;;;;;;5113460;28;19919;-41
2023/07/14 12:00:59;;;;;;;;;;;24.80;90.50;;;;;;5111526;28;19916;-44
2023/07/14 12:03:43;;;;;;;;;;;24.80;90.50;;;;;;5095331;28;19935;-44
2023/07/14 12:06:12;;;;;;;;;;;24.80;90.50;;;;;;5096987;28;19912;-42
2023/07/14 12:08:38;;;;;;;;;;;24.80;90.60;;;;;;5100626;28;19908;-43
2023/07/14 12:11:04;;;;;;;;;;;24.80;90.60;;;;;;5113499;28;19912;-43
2023/07/14 12:13:34;;;;;;;;;;;24.80;90.60;;;;;;5104871;28;19919;-41
2023/07/14 12:16:00;;;;;;;;;;;24.80;90.60;;;;;;5114460;28;19965;-41
2023/07/14 12:18:30;;;;;;;;;;;24.80;90.60;;;;;;5108754;28;19924;-41
2023/07/14 12:21:14;;;;;;;;;;;24.80;90.60;;;;;;5078410;28;19916;-43
2023/07/14 12:23:40;;;;;;;;;;;24.80;90.70;;;;;;5106043;28;20390;-39
2023/07/14 12:26:17;;;;;;;;;;;24.80;90.70;;;;;;5107139;28;19981;-41
2023/07/14 12:28:43;;;;;;;;;;;24.80;90.80;;;;;;5098231;28;19916;-42
2023/07/14 12:31:12;;;;;;;;;;;24.80;90.70;;;;;;5116649;28;19915;-42
2023/07/14 12:33:39;;;;;;;;;;;24.80;90.80;;;;;;5112568;28;19912;-41
2023/07/14 12:36:05;;;;;;;;;;;24.80;90.80;;;;;;5105856;28;19923;-41
2023/07/14 12:38:31;;;;;;;;;;;24.80;90.80;;;;;;5097887;28;19916;-39
2023/07/14 12:40:57;;;;;;;;;;;24.80;90.80;;;;;;5101282;28;19965;-43
2023/07/14 12:43:38;;;;;;;;;;;24.80;90.80;;;;;;5116966;28;19915;-43
2023/07/14 12:46:11;;;;;;;;;;;24.80;90.80;;;;;;5111445;28;19971;-41
2023/07/14 12:48:37;;;;;;;;;;;24.80;90.80;;;;;;5111814;28;19943;-41
2023/07/14 12:51:11;;;;;;;;;;;24.80;90.80;;;;;;5116512;28;19955;-41
2023/07/14 12:53:38;;;;;;;;;;;24.80;90.80;;;;;;5112858;28;19964;-43
2023/07/14 12:56:04;;;;;;;;;;;24.80;90.80;;;;;;5098025;28;19915;-41
2023/07/14 12:58:30;;;;;;;;;;;24.80;90.80;;;;;;5100544;28;21296;-45
2023/07/14 13:00:56;;;;;;;;;;;24.90;90.80;;;;;;5096256;28;20009;-41
2023/07/14 13:03:22;;;;;;;;;;;24.90;90.80;;;;;;5095861;28;20381;-43
2023/07/14 13:05:48;;;;;;;;;;;24.80;90.80;;;;;;5102321;28;19912;-41
2023/07/14 13:08:17;;;;;;;;;;;24.80;90.80;;;;;;5104100;28;19912;-42
2023/07/14 13:10:43;;;;;;;;;;;24.90;90.80;;;;;;5098189;28;20092;-41
2023/07/14 13:13:20;;;;;;;;;;;24.80;90.80;;;;;;5095421;28;19979;-44
2023/07/14 13:15:47;;;;;;;;;;;24.90;90.70;;;;;;5094312;28;19923;-44
2023/07/14 13:18:23;;;;;;;;;;;24.90;90.70;;;;;;5098189;28;19916;-44
2023/07/14 13:20:49;;;;;;;;;;;24.90;90.70;;;;;;5095689;28;19912;-42
2023/07/14 13:23:22;;;;;;;;;;;24.90;90.70;;;;;;5099273;28;19934;-41
2023/07/14 13:25:59;;;;;;;;;;;24.90;90.70;;;;;;5100450;28;19913;-42
2023/07/14 13:28:27;;;;;;;;;;;24.80;90.40;;;;;;5100024;28;19951;-42
2023/07/14 13:30:53;;;;;;;;;;;24.90;90.40;;;;;;5096900;28;19970;-44
2023/07/14 13:33:23;;;;;;;;;;;24.90;90.20;;;;;;5114957;28;19951;-42
2023/07/14 13:36:08;;;;;;;;;;;24.80;90.10;;;;;;5115452;28;19915;-44
2023/07/14 13:38:34;;;;;;;;;;;24.90;90.20;;;;;;5115731;28;19947;-43
2023/07/14 13:41:07;;;;;;;;;;;24.90;90.30;;;;;;5115490;28;19911;-43
2023/07/14 13:43:33;;;;;;;;;;;24.90;90.30;;;;;;5115703;28;19915;-41
2023/07/14 13:46:04;;;;;;;;;;;24.90;90.30;;;;;;5115457;28;20286;-41
2023/07/14 13:48:31;;;;;;;;;;;24.80;90.30;;;;;;5110787;28;19928;-42
2023/07/14 13:50:57;;;;;;;;;;;24.90;90.40;;;;;;5103001;28;19920;-41
2023/07/14 13:53:23;;;;;;;;;;;24.90;90.40;;;;;;5113830;28;20395;-42
2023/07/14 13:55:48;;;;;;;;;;;24.90;90.30;;;;;;5101433;28;20002;-41
2023/07/14 13:58:14;;;;;;;;;;;24.90;90.30;;;;;;5097872;28;19922;-41
2023/07/14 14:00:40;;;;;;;;;;;24.90;90.40;;;;;;5112318;28;19915;-41
2023/07/14 14:03:06;;;;;;;;;;;24.90;90.50;;;;;;5094865;28;20288;-40
2023/07/14 14:05:36;;;;;;;;;;;24.90;89.00;;;;;;5099869;28;19911;-41
2023/07/14 14:08:03;;;;;;;;;;;24.80;88.70;;;;;;5099372;28;19912;-43
2023/07/14 14:10:28;;;;;;;;;;;24.90;88.40;;;;;;5094840;28;19929;-43
2023/07/14 14:12:55;;;;;;;;;;;24.90;89.10;;;;;;5094592;28;19908;-42
2023/07/14 14:15:22;;;;;;;;;;;24.80;89.20;;;;;;5094494;28;19951;-45
2023/07/14 14:17:50;;;;;;;;;;;24.90;89.20;;;;;;5094491;28;20006;-42
2023/07/14 14:20:18;;;;;;;;;;;24.90;89.20;;;;;;5094581;28;20003;-41